Time;durP1;ratioP1;P1;durP2;ratioP2;P2;SDS_P1;SDS_P2;PMS_P1;PMS_P2;Temp;Humidity;BMP_temperature;BMP_pressure;BME280_temperature;BME280_humidity;BME280_pressure;Samples;Min_cycle;Max_cycle;Signal;HPM_P1;HPM_P2
2022/12/04 00:01:51;;;;;;;17.42;12.73;;;16.90;75.30;;;18.26;40.88;99367.91;5024371;28;20049;-71
2022/12/04 00:04:17;;;;;;;20.45;14.15;;;16.90;75.30;;;18.27;41.03;99363.25;5026881;28;20095;-71
2022/12/04 00:06:43;;;;;;;22.85;14.18;;;16.90;75.30;;;18.33;40.97;99370.25;5025772;28;20050;-71
2022/12/04 00:09:10;;;;;;;19.58;12.70;;;16.80;75.80;;;18.33;41.11;99356.53;5010293;28;20042;-71
2022/12/04 00:11:35;;;;;;;20.38;13.18;;;16.90;76.10;;;18.27;40.84;99363.25;5026688;28;20041;-71
2022/12/04 00:14:02;;;;;;;18.48;13.23;;;16.90;75.30;;;18.22;41.16;99359.50;5010572;28;20053;-71
2022/12/04 00:16:29;;;;;;;17.27;12.63;;;16.80;75.40;;;18.27;40.66;99357.75;5027512;28;20524;-71
2022/12/04 00:18:55;;;;;;;22.27;13.55;;;16.80;75.20;;;18.22;40.88;99370.50;5023096;28;20092;-71
2022/12/04 00:21:22;;;;;;;17.98;11.95;;;16.90;75.30;;;18.30;41.13;99366.19;5027184;28;20072;-71
2022/12/04 00:23:48;;;;;;;20.33;13.00;;;16.90;75.30;;;18.30;40.81;99379.91;5009163;28;20053;-71
2022/12/04 00:26:20;;;;;;;17.30;12.10;;;16.90;75.30;;;18.28;41.00;99373.91;5023022;28;20366;-71
2022/12/04 00:28:47;;;;;;;18.75;13.13;;;16.90;75.80;;;18.24;40.88;99367.41;5026938;28;20041;-71
2022/12/04 00:31:16;;;;;;;18.92;13.85;;;16.90;75.30;;;18.27;40.88;99366.81;5027431;28;20072;-71
2022/12/04 00:33:43;;;;;;;20.55;13.25;;;16.90;75.30;;;18.25;40.77;99369.06;5009111;28;20045;-71
2022/12/04 00:36:12;;;;;;;20.17;14.07;;;16.80;75.20;;;18.21;40.83;99373.53;5010377;28;20052;-71
2022/12/04 00:38:39;;;;;;;17.73;13.13;;;16.80;75.20;;;18.28;41.07;99365.69;5004137;28;20046;-71
2022/12/04 00:41:09;;;;;;;19.23;12.57;;;16.90;75.60;;;18.27;41.23;99369.56;5026106;28;20477;-71
2022/12/04 00:43:35;;;;;;;17.23;11.98;;;16.90;76.00;;;18.27;40.69;99361.31;5007487;28;20547;-70
2022/12/04 00:46:01;;;;;;;20.50;12.50;;;16.90;75.30;;;18.19;41.11;99360.13;5026858;28;20046;-70
2022/12/04 00:48:27;;;;;;;18.67;13.13;;;17.00;75.30;;;18.16;40.98;99357.97;5041868;28;20433;-70
2022/12/04 00:50:54;;;;;;;20.88;13.20;;;16.90;75.20;;;18.20;40.67;99358.19;5022860;28;20052;-70
2022/12/04 00:53:20;;;;;;;18.70;13.13;;;16.90;75.30;;;18.25;41.00;99358.06;5026682;28;20076;-71
2022/12/04 00:55:46;;;;;;;20.17;13.10;;;16.90;75.30;;;18.27;41.25;99353.09;5007242;28;20033;-71
2022/12/04 00:58:12;;;;;;;22.90;13.25;;;17.00;75.40;;;18.23;41.20;99357.56;5028655;28;20033;-71
2022/12/04 01:00:40;;;;;;;21.42;13.32;;;16.90;75.50;;;18.16;41.02;99365.41;5024189;28;20581;-71
2022/12/04 01:03:07;;;;;;;18.50;13.38;;;16.90;75.30;;;18.19;40.83;99362.03;4996662;28;20477;-71
2022/12/04 01:05:44;;;;;;;17.85;12.40;;;16.90;75.30;;;18.20;40.76;99352.69;5013232;28;20467;-71
2022/12/04 01:08:11;;;;;;;19.92;12.18;;;16.90;75.30;;;18.15;40.73;99350.06;5030057;28;20045;-71
2022/12/04 01:10:38;;;;;;;21.50;13.48;;;16.80;75.20;;;18.22;40.92;99353.22;5011217;28;20087;-71
2022/12/04 01:13:04;;;;;;;15.52;11.90;;;16.80;75.30;;;18.21;41.14;99354.31;5010591;28;20048;-71
2022/12/04 01:15:30;;;;;;;17.00;12.43;;;16.80;75.70;;;18.27;41.00;99339.34;5031422;28;20038;-71
2022/12/04 01:17:56;;;;;;;17.08;12.52;;;16.90;75.40;;;18.18;40.91;99333.78;5031996;28;20037;-72
2022/12/04 01:20:22;;;;;;;16.50;12.40;;;16.90;75.30;;;18.10;41.12;99330.97;5029254;28;20041;-72
2022/12/04 01:22:48;;;;;;;16.10;12.80;;;16.90;75.30;;;18.15;40.93;99328.13;5029903;28;20041;-72
2022/12/04 01:25:14;;;;;;;20.45;13.40;;;16.90;75.30;;;18.13;41.09;99324.88;5025206;28;20053;-71
2022/12/04 01:27:40;;;;;;;20.27;12.77;;;16.90;75.30;;;18.20;41.08;99330.75;5032707;28;20033;-71
2022/12/04 01:30:07;;;;;;;20.05;12.73;;;16.80;75.40;;;18.20;41.15;99325.25;5029571;28;20063;-71
2022/12/04 01:32:33;;;;;;;16.88;11.52;;;16.80;75.90;;;18.17;40.82;99328.63;5029888;28;20050;-71
2022/12/04 01:35:02;;;;;;;16.65;12.25;;;16.80;75.20;;;18.20;40.92;99334.28;5028296;28;20099;-71
2022/12/04 01:37:32;;;;;;;19.27;12.02;;;16.80;75.20;;;18.18;40.73;99324.75;5030473;28;20073;-71
2022/12/04 01:39:58;;;;;;;14.07;10.75;;;16.90;75.20;;;18.17;40.75;99320.38;5033550;28;20401;-71
2022/12/04 01:42:24;;;;;;;18.25;12.48;;;16.90;75.30;;;18.21;40.93;99319.41;5015599;28;20041;-71
2022/12/04 01:45:27;;;;;;;15.52;11.15;;;16.90;76.10;;;18.18;41.34;99322.00;5028297;28;20053;-71
2022/12/04 01:47:54;;;;;;;16.80;11.48;;;16.80;75.40;;;18.18;40.82;99316.50;5029155;28;20049;-71
2022/12/04 01:50:20;;;;;;;19.55;11.93;;;16.80;75.20;;;18.12;40.99;99317.75;5030398;28;20404;-71
2022/12/04 01:52:47;;;;;;;17.00;12.20;;;16.80;75.20;;;18.11;40.75;99327.09;5031886;28;20465;-71
2022/12/04 01:55:12;;;;;;;14.48;11.35;;;16.80;75.20;;;18.11;40.76;99316.91;5025277;28;20033;-70
2022/12/04 01:57:39;;;;;;;16.95;11.88;;;16.80;75.20;;;18.17;41.09;99323.13;5023014;28;20099;-71
2022/12/04 02:00:08;;;;;;;17.67;11.35;;;16.80;75.20;;;18.16;41.06;99324.22;5011626;28;20033;-71
2022/12/04 02:02:38;;;;;;;18.08;11.73;;;16.80;75.30;;;18.17;41.28;99321.19;5026094;28;20033;-71
2022/12/04 02:05:06;;;;;;;19.50;11.32;;;16.80;75.90;;;18.10;41.15;99320.00;5024702;28;20520;-70
2022/12/04 02:07:33;;;;;;;16.35;11.77;;;16.80;75.20;;;18.13;41.14;99313.88;5044422;28;20829;-71
2022/12/04 02:10:02;;;;;;;15.93;10.65;;;16.80;75.20;;;18.12;40.80;99326.81;5011430;28;20045;-70
2022/12/04 02:12:54;;;;;;;14.82;11.48;;;16.80;75.20;;;18.09;41.06;99321.09;5025228;28;20041;-71
2022/12/04 02:15:25;;;;;;;18.63;12.00;;;16.80;75.20;;;18.13;41.25;99324.88;5036579;28;20144;-71
2022/12/04 02:18:02;;;;;;;15.13;10.95;;;16.80;75.20;;;18.14;41.40;99321.81;5028287;28;20049;-70
2022/12/04 02:20:57;;;;;;;20.70;11.32;;;16.80;75.40;;;18.12;40.97;99326.00;5007991;28;20041;-71
2022/12/04 02:23:44;;;;;;;15.95;11.13;;;16.80;75.20;;;18.10;41.06;99322.75;5028417;28;20057;-71
2022/12/04 02:26:43;;;;;;;18.08;11.68;;;16.80;75.20;;;18.08;40.79;99323.03;5028886;28;20064;-70
2022/12/04 02:29:40;;;;;;;15.68;11.20;;;16.80;75.20;;;18.10;40.65;99315.31;5016820;28;20046;-70
2022/12/04 02:32:27;;;;;;;13.02;9.75;;;16.80;75.20;;;18.11;41.19;99310.63;5027724;28;20049;-71
2022/12/04 02:35:15;;;;;;;15.73;12.05;;;16.80;75.40;;;18.12;41.35;99315.81;5028533;28;20053;-71
2022/12/04 02:37:46;;;;;;;15.50;11.13;;;16.80;75.90;;;18.05;41.15;99315.44;5010060;28;20041;-70
2022/12/04 02:40:19;;;;;;;17.15;12.18;;;16.80;75.20;;;18.05;41.15;99312.69;5011165;28;20046;-70
2022/12/04 02:43:16;;;;;;;19.33;11.80;;;16.80;75.20;;;18.05;40.88;99314.63;5028813;28;20042;-71
2022/12/04 02:45:55;;;;;;;16.90;11.32;;;16.70;75.10;;;18.04;41.14;99318.47;5009627;28;20060;-70
2022/12/04 02:48:21;;;;;;;15.50;10.10;;;16.80;75.20;;;18.07;41.48;99313.19;5026151;28;20156;-71
2022/12/04 02:50:50;;;;;;;13.88;9.63;;;16.80;75.60;;;18.08;41.34;99311.25;5025922;28;20042;-71
2022/12/04 02:53:19;;;;;;;16.75;11.10;;;16.70;75.80;;;18.09;41.28;99310.13;5029457;28;20048;-71
2022/12/04 02:56:02;;;;;;;15.65;10.13;;;16.70;75.30;;;18.03;41.12;99314.94;5013341;28;20091;-71
2022/12/04 02:58:54;;;;;;;15.02;11.10;;;16.80;75.30;;;18.05;40.73;99311.88;5028805;28;20052;-71
2022/12/04 03:01:24;;;;;;;16.02;10.73;;;16.80;75.20;;;18.08;40.75;99317.56;5027367;28;20079;-71
2022/12/04 03:04:15;;;;;;;15.88;10.75;;;16.80;75.20;;;18.07;41.27;99320.63;5011856;28;20473;-71
2022/12/04 03:06:45;;;;;;;18.05;11.40;;;16.80;75.20;;;18.04;41.48;99323.97;5025520;28;20437;-71
2022/12/04 03:09:14;;;;;;;20.17;12.23;;;16.80;75.60;;;18.05;41.16;99333.84;4996539;28;20048;-71
2022/12/04 03:11:42;;;;;;;16.08;10.68;;;16.80;75.20;;;18.06;41.06;99329.97;5012718;28;20041;-70
2022/12/04 03:14:17;;;;;;;15.48;10.77;;;16.80;75.20;;;18.02;41.06;99335.28;5011998;28;20037;-70
2022/12/04 03:16:43;;;;;;;17.45;12.07;;;16.80;75.10;;;18.04;40.82;99332.19;5025240;28;20048;-70
2022/12/04 03:19:23;;;;;;;15.52;11.48;;;16.90;75.00;;;18.06;40.43;99335.47;5013688;28;20674;-71
2022/12/04 03:21:53;;;;;;;15.98;10.90;;;16.80;75.20;;;18.07;41.42;99331.59;5007151;28;20401;-71
2022/12/04 03:24:23;;;;;;;16.83;11.05;;;16.80;75.20;;;18.00;41.22;99327.34;5025008;28;20460;-71
2022/12/04 03:26:54;;;;;;;12.98;9.63;;;16.80;75.20;;;18.03;40.99;99319.63;5026872;28;20037;-71
2022/12/04 03:30:03;;;;;;;17.27;11.13;;;16.80;75.20;;;18.03;40.99;99325.09;5026978;28;20041;-71
2022/12/04 03:32:37;;;;;;;15.23;10.88;;;16.70;75.10;;;18.02;40.90;99323.50;5011842;28;20041;-71
2022/12/04 03:35:03;;;;;;;16.77;11.15;;;16.70;75.00;;;18.06;40.99;99318.97;5010472;28;20052;-71
2022/12/04 03:37:44;;;;;;;15.50;10.63;;;16.70;75.10;;;17.99;41.16;99322.97;5028819;28;20052;-71
2022/12/04 03:41:02;;;;;;;12.95;9.40;;;16.70;75.70;;;17.99;41.73;99322.97;5028722;28;20041;-71
2022/12/04 03:43:47;;;;;;;12.35;10.13;;;16.70;75.70;;;17.96;41.16;99320.03;5045354;28;20041;-71
2022/12/04 03:46:36;;;;;;;14.50;11.23;;;16.70;75.10;;;17.95;41.17;99312.94;5015287;28;20605;-71
2022/12/04 03:49:09;;;;;;;13.80;10.50;;;16.80;75.10;;;17.98;40.92;99318.59;4988716;28;20057;-71
2022/12/04 03:51:43;;;;;;;15.63;10.20;;;16.80;75.00;;;18.01;41.01;99322.66;5026771;28;20449;-71
2022/12/04 03:54:19;;;;;;;14.25;10.30;;;16.70;75.10;;;17.97;40.44;99321.66;5007146;28;20049;-71
2022/12/04 03:56:54;;;;;;;12.30;10.25;;;16.70;74.40;;;17.94;40.40;99312.13;5012214;28;20045;-71
2022/12/04 04:00:04;;;;;;;17.60;10.63;;;16.70;74.00;;;17.99;40.15;99314.75;5012247;28;20695;-71
2022/12/04 04:02:34;;;;;;;15.18;9.18;;;16.70;73.80;;;17.95;40.54;99315.66;5019330;28;20726;-71
2022/12/04 04:05:00;;;;;;;13.32;10.70;;;16.70;74.40;;;17.95;40.90;99318.41;5013654;28;20102;-71
2022/12/04 04:07:33;;;;;;;13.98;9.98;;;16.70;75.00;;;17.98;40.81;99324.09;5016858;28;20057;-71
2022/12/04 04:10:04;;;;;;;15.40;10.23;;;16.70;75.10;;;18.02;40.19;99318.00;5012503;28;20381;-70
2022/12/04 04:12:34;;;;;;;15.60;9.93;;;16.70;74.20;;;18.00;40.00;99321.03;4999407;28;20501;-70
2022/12/04 04:26:21;;;;;;;15.23;10.63;;;16.70;74.70;;;17.96;39.96;99320.03;5013492;28;20045;-71
2022/12/04 04:28:47;;;;;;;12.45;9.45;;;16.60;74.00;;;17.99;39.86;99313.94;5010773;28;20103;-71
2022/12/04 04:31:34;;;;;;;12.70;9.32;;;16.60;73.60;;;17.94;39.99;99314.06;5028444;28;20037;-71
2022/12/04 04:34:27;;;;;;;15.25;10.07;;;16.70;73.30;;;17.92;39.90;99306.13;5027641;28;20042;-71
2022/12/04 04:37:46;;;;;;;13.60;9.25;;;16.70;72.90;;;17.91;40.46;99307.25;5030517;28;20041;-71
2022/12/04 04:40:26;;;;;;;13.98;8.95;;;16.70;74.00;;;17.92;40.34;99297.09;5036456;28;20509;-71
2022/12/04 04:43:10;;;;;;;13.93;10.10;;;16.70;74.40;;;17.97;39.93;99305.19;5029020;28;20049;-71
2022/12/04 04:45:54;;;;;;;12.82;9.55;;;16.70;73.50;;;17.99;39.67;99305.72;5010553;28;20037;-71
2022/12/04 04:48:41;;;;;;;14.70;10.32;;;16.70;73.00;;;17.94;39.63;99305.81;5030875;28;21004;-71
2022/12/04 04:51:07;;;;;;;12.13;9.93;;;16.70;72.90;;;17.89;39.92;99306.75;5014321;28;20144;-71
2022/12/04 04:53:54;;;;;;;13.85;10.10;;;16.70;73.30;;;17.86;40.37;99315.59;5030328;28;20076;-70
2022/12/04 04:56:20;;;;;;;12.50;8.85;;;16.60;73.90;;;17.91;40.65;99309.16;5030536;28;20122;-71
2022/12/04 04:58:47;;;;;;;10.95;8.48;;;16.60;74.40;;;17.94;39.70;99303.09;5030159;28;20041;-71
2022/12/04 05:01:18;;;;;;;10.00;8.02;;;16.50;73.40;;;17.97;39.67;99302.47;5029970;28;20033;-71
2022/12/04 05:03:44;;;;;;;14.48;11.15;;;16.60;73.30;;;17.97;39.46;99307.94;5029080;28;20061;-71
2022/12/04 05:06:10;;;;;;;16.00;10.18;;;16.70;72.80;;;17.94;39.45;99300.34;5029641;28;20053;-72
2022/12/04 05:08:37;;;;;;;12.88;8.88;;;16.70;72.50;;;17.90;40.12;99291.91;5028137;28;20068;-71
2022/12/04 05:11:03;;;;;;;12.00;8.95;;;16.70;73.40;;;17.90;40.24;99300.13;5030374;28;20061;-70
2022/12/04 05:13:29;;;;;;;11.73;8.43;;;16.60;73.80;;;17.95;39.95;99296.47;5031298;28;20061;-71
2022/12/04 05:16:03;;;;;;;12.25;8.90;;;16.60;73.90;;;17.94;39.65;99303.88;5011663;28;20056;-71
2022/12/04 05:18:29;;;;;;;12.10;8.55;;;16.60;73.30;;;17.89;39.75;99301.25;5028261;28;20041;-71
2022/12/04 05:20:55;;;;;;;12.15;9.35;;;16.70;73.00;;;17.87;39.52;99306.25;5029041;28;20045;-71
2022/12/04 05:23:22;;;;;;;15.23;10.27;;;16.70;72.70;;;17.84;39.89;99306.06;5028651;28;20076;-71
2022/12/04 05:25:47;;;;;;;12.98;8.27;;;16.70;72.80;;;17.86;40.33;99315.59;5029040;28;20045;-71
2022/12/04 05:28:14;;;;;;;13.05;9.60;;;16.70;73.60;;;17.87;40.07;99317.22;5014273;28;20045;-71
2022/12/04 05:30:40;;;;;;;11.68;8.88;;;16.70;73.80;;;17.93;39.62;99320.66;5014070;28;20465;-71
2022/12/04 05:33:06;;;;;;;10.85;8.75;;;16.70;73.10;;;17.89;39.65;99327.91;5025989;28;20048;-71
2022/12/04 05:35:32;;;;;;;11.98;9.05;;;16.70;72.70;;;17.88;39.51;99315.28;5030516;28;20046;-71
2022/12/04 05:37:58;;;;;;;12.23;9.05;;;16.70;72.50;;;17.87;39.58;99314.47;5031078;28;20042;-71
2022/12/04 05:40:24;;;;;;;11.00;8.70;;;16.70;72.50;;;17.82;39.92;99313.78;5028465;28;20044;-71
2022/12/04 05:42:50;;;;;;;10.93;8.65;;;16.60;73.00;;;17.81;40.20;99312.97;5031378;28;20045;-72
2022/12/04 05:45:16;;;;;;;10.60;8.40;;;16.60;73.40;;;17.82;40.36;99320.09;5029004;28;20041;-72
2022/12/04 05:47:43;;;;;;;10.57;9.05;;;16.60;73.80;;;17.86;39.47;99321.09;5025107;28;20408;-71
2022/12/04 05:50:10;;;;;;;13.48;8.70;;;16.60;72.90;;;17.86;39.61;99326.59;5027147;28;20053;-71
2022/12/04 05:52:37;;;;;;;12.20;9.00;;;16.70;72.70;;;17.83;39.49;99327.19;5015164;28;20093;-71
2022/12/04 05:55:03;;;;;;;9.35;7.35;;;16.60;72.50;;;17.77;39.42;99329.19;5014603;28;20453;-71
2022/12/04 05:57:29;;;;;;;11.82;8.70;;;16.60;72.60;;;17.79;39.55;99326.16;5010949;28;20445;-71
2022/12/04 05:59:55;;;;;;;12.50;9.20;;;16.60;72.70;;;17.76;39.58;99324.84;5032463;28;20052;-71
2022/12/04 06:02:21;;;;;;;12.00;8.32;;;16.60;72.70;;;17.82;40.00;99331.06;5023483;28;20041;-71
2022/12/04 06:04:47;;;;;;;11.15;8.27;;;16.60;73.10;;;17.76;40.29;99324.84;4997182;28;20706;-71
2022/12/04 06:07:14;;;;;;;12.23;8.85;;;16.60;73.40;;;17.77;40.39;99325.66;5029764;28;20053;-71
2022/12/04 06:09:39;;;;;;;20.55;8.45;;;16.60;73.80;;;17.75;39.99;99334.19;5030382;28;20033;-71
2022/12/04 06:12:06;;;;;;;10.05;7.50;;;16.60;73.10;;;17.75;40.08;99336.94;5029445;28;20428;-71
2022/12/04 06:14:32;;;;;;;9.52;7.30;;;16.60;73.10;;;17.72;39.92;99334.81;5029927;28;20045;-71
2022/12/04 06:16:58;;;;;;;10.18;7.53;;;16.60;72.90;;;17.77;39.96;99328.41;5030316;28;20045;-71
2022/12/04 06:19:24;;;;;;;10.45;8.18;;;16.60;73.10;;;17.75;40.14;99327.88;5029364;28;20037;-71
2022/12/04 06:21:51;;;;;;;10.77;7.50;;;16.60;73.70;;;17.70;40.64;99326.06;5027298;28;20038;-71
2022/12/04 06:24:22;;;;;;;10.48;8.18;;;16.50;73.90;;;17.73;40.53;99319.16;5029602;28;20080;-71
2022/12/04 06:26:49;;;;;;;11.00;8.48;;;16.50;74.10;;;17.70;40.41;99322.50;5028142;28;20046;-71
2022/12/04 06:29:15;;;;;;;10.25;8.10;;;16.60;73.60;;;17.72;40.22;99321.09;5026875;28;20045;-71
2022/12/04 06:31:41;;;;;;;11.25;7.43;;;16.50;73.60;;;17.69;40.52;99323.66;5029888;28;20053;-71
2022/12/04 06:34:11;;;;;;;10.45;8.02;;;16.50;73.40;;;17.68;40.13;99314.59;5011154;28;20693;-71
2022/12/04 06:36:37;;;;;;;11.30;7.97;;;16.50;73.40;;;17.70;40.73;99314.28;5027078;28;20405;-71
2022/12/04 06:39:03;;;;;;;10.35;7.45;;;16.40;74.20;;;17.68;40.66;99319.25;5013636;28;20049;-70
2022/12/04 06:41:30;;;;;;;9.57;7.53;;;16.50;74.50;;;17.68;40.56;99306.38;5011548;28;20068;-70
2022/12/04 06:43:56;;;;;;;11.80;7.75;;;16.40;74.10;;;17.71;40.41;99311.25;4996978;28;20041;-70
2022/12/04 06:46:25;;;;;;;9.82;7.88;;;16.40;73.90;;;17.71;40.37;99321.41;5025352;28;20052;-71
2022/12/04 06:48:53;;;;;;;10.02;7.95;;;16.50;73.70;;;17.69;40.12;99323.66;5026531;28;20515;-71
2022/12/04 06:51:25;;;;;;;11.50;8.75;;;16.60;73.50;;;17.71;40.46;99329.63;5025201;28;20052;-71
2022/12/04 06:53:51;;;;;;;;;;;16.50;73.90;;;17.66;40.89;99332.50;5027852;28;20067;-72
2022/12/04 06:56:20;;;;;;;8.10;6.68;;;16.50;74.30;;;17.63;41.02;99314.72;5023700;28;19932;-72
2022/12/04 06:58:51;;;;;;;8.80;7.28;;;16.40;74.80;;;17.66;40.52;99316.03;5006749;28;20435;-71
2022/12/04 07:01:19;;;;;;;;;;;16.40;74.80;;;17.64;40.45;99312.78;5024738;28;20056;-71
2022/12/04 07:03:46;;;;;;;9.90;7.32;;;16.50;74.10;;;17.67;40.32;99309.41;5025432;28;19925;-71
2022/12/04 07:06:33;;;;;;;10.95;8.27;;;16.50;73.90;;;17.62;40.40;99309.53;5028967;28;20481;-71
2022/12/04 07:09:02;;;;;;;12.00;7.63;;;16.40;73.70;;;17.63;40.98;99313.88;5025781;28;20046;-71
2022/12/04 07:11:28;;;;;;;10.32;7.03;;;16.30;74.60;;;17.66;40.87;99308.59;5025722;28;20048;-71
2022/12/04 07:13:54;;;;;;;11.98;8.25;;;16.30;74.60;;;17.67;40.67;99312.16;5020102;28;20061;-71
2022/12/04 07:16:21;;;;;;;8.23;6.90;;;16.30;74.70;;;17.66;40.68;99310.56;5010775;28;20029;-71
2022/12/04 07:18:52;;;;;;;8.80;7.55;;;16.30;74.60;;;17.66;40.30;99310.56;5026071;28;20041;-71
2022/12/04 07:21:20;;;;;;;8.13;6.65;;;16.30;74.30;;;17.68;40.12;99311.03;4994872;28;20052;-71
2022/12/04 07:23:51;;;;;;;8.75;7.55;;;16.40;74.10;;;17.64;40.71;99319.06;5041758;28;20051;-71
2022/12/04 07:26:18;;;;;;;8.63;7.00;;;16.40;74.60;;;17.62;40.85;99321.31;5026361;28;20037;-71
2022/12/04 07:28:47;;;;;;;8.50;6.95;;;16.30;74.60;;;17.62;40.98;99323.25;5024439;28;20144;-71
2022/12/04 07:31:16;;;;;;;9.77;7.97;;;16.40;74.70;;;17.57;40.65;99322.22;5023230;28;20041;-71
2022/12/04 07:33:42;;;;;;;9.77;7.15;;;16.30;74.50;;;17.62;40.67;99321.31;5026372;28;20140;-71
2022/12/04 07:36:11;;;;;;;10.80;8.15;;;16.30;74.50;;;17.60;40.64;99318.06;5010480;28;20057;-71
2022/12/04 07:38:37;;;;;;;9.15;7.18;;;16.40;74.50;;;17.65;40.65;99319.88;5008689;28;20124;-71
2022/12/04 07:41:04;;;;;;;9.43;7.47;;;16.30;74.20;;;17.70;40.75;99314.28;5021478;28;20042;-71
2022/12/04 07:43:30;;;;;;;10.55;7.63;;;16.30;74.70;;;17.69;40.59;99312.66;5026500;28;20080;-71
2022/12/04 07:45:57;;;;;;;8.48;6.45;;;16.30;74.60;;;17.69;40.45;99310.72;5026259;28;20049;-71
2022/12/04 07:48:23;;;;;;;9.63;7.78;;;16.30;74.60;;;17.68;40.67;99311.03;5025058;28;20470;-72
2022/12/04 07:50:49;;;;;;;10.45;7.03;;;16.30;74.60;;;17.67;40.27;99302.00;5026406;28;20034;-72
2022/12/04 07:53:15;;;;;;;7.38;6.07;;;16.30;74.70;;;17.74;40.51;99304.31;5026848;28;20404;-72
2022/12/04 07:55:41;;;;;;;11.27;7.68;;;16.30;74.60;;;17.76;40.35;99299.34;5011580;28;20386;-72
2022/12/04 07:58:07;;;;;;;9.38;6.97;;;16.20;74.50;;;17.78;40.55;99302.56;5025103;28;20042;-72
2022/12/04 08:00:34;;;;;;;8.10;6.90;;;16.30;74.90;;;17.77;40.86;99303.69;5024223;28;20045;-74
2022/12/04 08:03:00;;;;;;;8.25;6.80;;;16.30;75.20;;;17.83;40.46;99298.94;5042087;28;20049;-72
2022/12/04 08:05:26;;;;;;;10.45;7.75;;;16.30;74.70;;;17.84;40.44;99301.38;5009947;28;20102;-74
2022/12/04 08:07:53;;;;;;;8.13;7.15;;;16.30;74.60;;;17.85;40.21;99313.97;5024423;28;20053;-71
2022/12/04 08:10:19;;;;;;;8.63;6.55;;;16.30;74.70;;;17.91;40.11;99314.66;5026890;28;20037;-71
2022/12/04 08:12:45;;;;;;;7.35;6.40;;;16.30;74.70;;;17.98;40.31;99312.31;5025833;28;20412;-73
2022/12/04 08:15:11;;;;;;;9.77;6.78;;;16.30;74.70;;;17.93;40.45;99309.69;5044677;28;20052;-73
2022/12/04 08:17:37;;;;;;;8.45;6.63;;;16.20;75.20;;;17.95;40.26;99312.94;5029679;28;20037;-72
2022/12/04 08:20:06;;;;;;;12.80;6.65;;;16.30;75.20;;;17.97;40.30;99310.69;5026390;28;20053;-72
2022/12/04 08:22:32;;;;;;;7.65;5.90;;;16.30;74.60;;;18.00;40.14;99316.34;5028845;28;20505;-72
2022/12/04 08:24:58;;;;;;;9.68;7.38;;;16.30;74.60;;;18.02;39.83;99326.25;5029654;28;20747;-74
2022/12/04 08:27:24;;;;;;;8.82;7.35;;;16.30;74.60;;;18.09;41.55;99321.94;5031070;28;20044;-73
2022/12/04 08:29:51;;;;;;;7.43;6.45;;;16.40;78.50;;;18.12;40.94;99326.00;5029855;28;20045;-73
2022/12/04 08:32:17;;;;;;;9.63;7.13;;;16.60;76.30;;;18.05;41.20;99320.91;5029337;28;20052;-73
2022/12/04 08:34:43;;;;;;;8.80;6.30;;;16.50;76.10;;;18.06;41.19;99325.28;5043794;28;20041;-73
2022/12/04 08:37:09;;;;;;;8.85;6.95;;;16.50;76.10;;;18.15;40.85;99320.69;5011748;28;20037;-73
2022/12/04 08:39:35;;;;;;;9.75;7.38;;;16.40;76.10;;;18.11;40.85;99324.34;5025960;28;20041;-72
2022/12/04 08:42:01;;;;;;;9.80;6.78;;;16.40;76.10;;;18.14;40.73;99331.97;5011175;28;20045;-72
2022/12/04 08:44:27;;;;;;;14.30;7.30;;;16.40;76.00;;;18.16;40.76;99332.47;5031242;28;20049;-72
2022/12/04 08:46:53;;;;;;;12.38;8.02;;;16.40;76.30;;;18.17;40.92;99336.84;5030152;28;20091;-72
2022/12/04 08:49:19;;;;;;;19.63;9.85;;;16.40;76.60;;;18.28;41.29;99335.47;5025965;28;20046;-72
2022/12/04 08:51:45;;;;;;;23.90;11.98;;;16.50;77.00;;;18.24;41.78;99337.22;5013254;28;20034;-72
2022/12/04 08:54:12;;;;;;;26.48;11.98;;;16.70;77.50;;;18.34;42.18;99337.00;5029207;28;20053;-72
2022/12/04 08:56:38;;;;;;;35.50;14.38;;;16.70;78.20;;;18.41;42.86;99331.03;5012962;28;20037;-72
2022/12/04 08:59:04;;;;;;;34.88;17.30;;;16.80;78.90;;;18.42;43.06;99328.00;4995348;28;20568;-72
2022/12/04 09:01:30;;;;;;;45.72;17.95;;;16.90;79.20;;;18.44;43.26;99320.25;5027219;28;20065;-72
2022/12/04 09:03:56;;;;;;;33.08;16.02;;;16.90;79.30;;;18.38;42.50;99324.25;5010028;28;20037;-72
2022/12/04 09:06:23;;;;;;;23.00;14.63;;;16.80;78.10;;;18.38;42.18;99335.22;5013333;28;20064;-73
2022/12/04 09:08:54;;;;;;;30.40;16.13;;;16.70;77.70;;;18.35;41.87;99330.38;5026892;28;20045;-71
2022/12/04 09:11:21;;;;;;;31.20;14.52;;;16.70;77.70;;;18.38;41.80;99337.16;5015278;28;20176;-72
2022/12/04 09:13:47;;;;;;;31.77;14.50;;;16.70;77.60;;;18.40;41.55;99337.69;5024031;28;20042;-72
2022/12/04 09:16:16;;;;;;;33.28;16.33;;;16.70;77.60;;;18.44;41.67;99330.41;5028637;28;20048;-72
2022/12/04 09:18:43;;;;;;;31.15;15.52;;;16.60;77.60;;;18.51;41.62;99332.72;5027179;28;20060;-72
2022/12/04 09:21:11;;;;;;;36.30;15.30;;;16.60;77.90;;;18.44;42.10;99325.75;4989776;28;20682;-72
2022/12/04 09:23:37;;;;;;;39.97;16.15;;;16.70;78.00;;;18.47;41.61;99328.97;5009047;28;20096;-71
2022/12/04 09:26:04;;;;;;;26.33;14.75;;;16.60;77.70;;;18.48;41.58;99327.88;5027430;28;20053;-72
2022/12/04 09:28:30;;;;;;;24.90;13.75;;;16.70;77.60;;;18.53;41.23;99335.97;5012049;28;20045;-72
2022/12/04 09:31:01;;;;;;;29.63;13.32;;;16.70;77.40;;;18.53;41.71;99330.50;5012029;28;20111;-72
2022/12/04 09:33:29;;;;;;;29.50;15.90;;;16.60;77.60;;;18.61;41.37;99332.47;5010754;28;20038;-72
2022/12/04 09:35:59;;;;;;;26.80;15.27;;;16.70;77.50;;;18.53;41.47;99328.53;5026760;28;20080;-72
2022/12/04 09:38:26;;;;;;;35.30;15.13;;;16.70;77.70;;;18.60;41.31;99330.88;5027490;28;20038;-72
2022/12/04 09:41:30;;;;;;;31.88;16.67;;;16.70;77.80;;;18.58;41.26;99331.16;4995085;28;20049;-71
2022/12/04 09:44:02;;;;;;;27.00;14.35;;;16.70;77.50;;;18.55;41.21;99331.78;5028014;28;20041;-72
2022/12/04 09:46:39;;;;;;;31.73;15.27;;;16.70;77.40;;;18.53;41.14;99330.50;5010588;28;20045;-72
2022/12/04 09:49:23;;;;;;;25.92;15.68;;;16.80;77.30;;;18.59;41.25;99320.97;5011861;28;20497;-72
2022/12/04 09:51:50;;;;;;;26.95;15.13;;;16.70;77.40;;;18.58;41.33;99316.63;5043856;28;20041;-72
2022/12/04 09:54:19;;;;;;;27.10;15.43;;;16.80;77.60;;;18.64;41.27;99309.84;5011008;28;20046;-72
2022/12/04 09:57:04;;;;;;;30.20;15.30;;;16.70;77.50;;;18.57;41.69;99291.09;5025919;28;20046;-72
2022/12/04 09:59:30;;;;;;;28.52;15.18;;;16.90;77.60;;;18.68;41.27;99288.88;5010768;28;20045;-73
2022/12/04 10:02:41;;;;;;;32.30;16.38;;;16.90;77.00;;;18.67;41.06;99284.50;5027258;28;20128;-76
2022/12/04 10:05:20;;;;;;;25.52;15.13;;;16.90;77.10;;;18.69;41.22;99286.94;5028586;28;20049;-73
2022/12/04 10:08:21;;;;;;;24.85;15.80;;;16.90;77.50;;;18.70;41.51;99288.53;5026692;28;20059;-73
2022/12/04 10:11:19;;;;;;;25.75;14.07;;;16.90;77.60;;;18.70;41.15;99275.63;5026000;28;20060;-74
2022/12/04 10:14:30;;;;;;;29.70;15.77;;;16.90;77.60;;;18.71;40.68;99276.44;5012636;28;20046;-73
2022/12/04 10:17:22;;;;;;;26.75;14.75;;;16.90;77.20;;;18.71;41.01;99277.25;5031948;28;20046;-73
2022/12/04 10:20:10;;;;;;;30.00;15.07;;;16.90;77.20;;;18.69;40.92;99282.25;5026303;28;20067;-73
2022/12/04 10:22:39;;;;;;;24.88;14.30;;;16.90;77.00;;;18.73;40.62;99266.75;5026073;28;20044;-72
2022/12/04 10:25:11;;;;;;;21.60;13.57;;;16.90;76.80;;;18.73;40.73;99266.75;5025300;28;20045;-72
2022/12/04 10:27:41;;;;;;;;;;;16.90;76.80;;;18.72;40.84;99259.63;5008152;28;20046;-73
2022/12/04 10:30:20;;;;;;;26.38;15.63;;;16.90;76.80;;;18.73;40.73;99253.03;5022196;28;19947;-73
2022/12/04 10:32:47;;;;;;;29.05;13.23;;;16.90;76.70;;;18.75;40.48;99245.31;5024473;28;20048;-73
2022/12/04 10:35:28;;;;;;;24.65;13.88;;;16.90;76.30;;;18.75;40.48;99241.69;5008669;28;20408;-73
2022/12/04 10:38:02;;;;;;;25.00;14.35;;;17.00;76.20;;;18.73;40.25;99236.53;5025892;28;20047;-75
2022/12/04 10:40:50;;;;;;;23.98;13.50;;;17.00;75.90;;;18.78;41.63;99230.94;5025630;28;20046;-73